Time;durP1;ratioP1;P1;durP2;ratioP2;P2;SDS_P1;SDS_P2;PMS_P1;PMS_P2;Temp;Humidity;BMP_temperature;BMP_pressure;BME280_temperature;BME280_humidity;BME280_pressure;Samples;Min_cycle;Max_cycle;Signal;HPM_P1;HPM_P2
2021/12/31 00:01:02;;;;;;;;;;;;;;;;;;5096897;28;20386;-73
2021/12/31 00:03:27;;;;;;;;;;;;;;;;;;5097110;28;19967;-74
2021/12/31 00:05:52;;;;;;;;;;;;;;;;;;5096629;28;19955;-74
2021/12/31 00:08:17;;;;;;;;;;;;;;;;;;5095771;28;19999;-74
2021/12/31 00:10:43;;;;;;;;;;;;;;;;;;5095821;28;19967;-74
2021/12/31 00:13:08;;;;;;;;;;;;;;;;;;5096947;28;19970;-74
2021/12/31 00:15:33;;;;;;;;;;;;;;;;;;5096867;28;19920;-74
2021/12/31 00:17:59;;;;;;;;;;;;;;;;;;5095107;28;20265;-75
2021/12/31 00:20:25;;;;;;;;;;;;;;;;;;5095940;28;19992;-75
2021/12/31 00:25:20;;;;;;;;;;;;;;;;;;5097107;28;19923;-74
2021/12/31 00:27:45;;;;;;;;;;;;;;;;;;5097479;28;19916;-74
2021/12/31 00:30:11;;;;;;;;;;;;;;;;;;5096922;28;20014;-74
2021/12/31 00:32:36;;;;;;;;;;;;;;;;;;5096975;28;20316;-75
2021/12/31 00:35:01;;;;;;;;;;;;;;;;;;5096940;28;20300;-74
2021/12/31 00:37:34;;;;;;;;;;;;;;;;;;5097063;28;19923;-74
2021/12/31 00:40:00;;;;;;;;;;;;;;;;;;5096028;28;20008;-74
2021/12/31 00:42:25;;;;;;;;;;;;;;;;;;5095747;28;19924;-74
2021/12/31 00:44:50;;;;;;;;;;;;;;;;;;5095929;28;19923;-74
2021/12/31 00:47:16;;;;;;;;;;;;;;;;;;5096144;28;20266;-74
2021/12/31 00:49:41;;;;;;;;;;;;;;;;;;5096368;28;20015;-74
2021/12/31 00:52:07;;;;;;;;;;;;;;;;;;5096415;28;19916;-74
2021/12/31 00:54:33;;;;;;;;;;;;;;;;;;5096676;28;19916;-74
2021/12/31 00:57:02;;;;;;;;;;;;;;;;;;5095843;28;19920;-74
2021/12/31 00:59:28;;;;;;;;;;;;;;;;;;5096997;28;19924;-74
2021/12/31 01:01:53;;;;;;;;;;;;;;;;;;5096817;28;19923;-74
2021/12/31 01:04:19;;;;;;;;;;;;;;;;;;5096164;28;19916;-74
2021/12/31 01:06:44;;;;;;;;;;;;;;;;;;5096571;28;19969;-74
2021/12/31 01:09:09;;;;;;;;;;;;;;;;;;5096635;28;19916;-74
2021/12/31 01:11:34;;;;;;;;;;;;;;;;;;5096206;28;19920;-74
2021/12/31 01:14:04;;;;;;;;;;;;;;;;;;5096221;28;20003;-74
2021/12/31 01:16:38;;;;;;;;;;;;;;;;;;5095962;28;20293;-74
2021/12/31 01:21:31;;;;;;;;;;;;;;;;;;5096065;28;19951;-74
2021/12/31 01:23:58;;;;;;;;;;;;;;;;;;5096274;28;19916;-74
2021/12/31 01:26:24;;;;;;;;;;;;;;;;;;5096079;28;20003;-74
2021/12/31 01:28:49;;;;;;;;;;;;;;;;;;5095318;28;20033;-75
2021/12/31 01:31:14;;;;;;;;;;;;;;;;;;5096296;28;20054;-74
2021/12/31 01:33:40;;;;;;;;;;;;;;;;;;5096389;28;19919;-74
2021/12/31 01:36:05;;;;;;;;;;;;;;;;;;5095042;28;19923;-74
2021/12/31 01:38:31;;;;;;;;;;;;;;;;;;5096702;28;19962;-75
2021/12/31 01:40:56;;;;;;;;;;;;;;;;;;5096175;28;19924;-74
2021/12/31 01:43:21;;;;;;;;;;;;;;;;;;5096459;28;19923;-74
2021/12/31 01:45:54;;;;;;;;;;;;;;;;;;5095264;28;19920;-75
2021/12/31 01:48:49;;;;;;;;;;;;;;;;;;5096554;28;20293;-74
2021/12/31 01:51:07;;;;;;;;;;;;;;;;;;5095952;28;19916;-74
2021/12/31 01:53:33;;;;;;;;;;;;;;;;;;5095317;28;19920;-74
2021/12/31 01:55:59;;;;;;;;;;;;;;;;;;5096013;28;19916;-74
2021/12/31 01:58:25;;;;;;;;;;;;;;;;;;5096133;28;20032;-74
2021/12/31 02:00:50;;;;;;;;;;;;;;;;;;5095887;28;19924;-74
2021/12/31 02:03:19;;;;;;;;;;;;;;;;;;5095017;28;20387;-74
2021/12/31 02:05:45;;;;;;;;;;;;;;;;;;5094072;28;19920;-74
2021/12/31 02:08:10;;;;;;;;;;;;;;;;;;5096350;28;20470;-75
2021/12/31 02:10:35;;;;;;;;;;;;;;;;;;5095260;28;19916;-74
2021/12/31 02:13:01;;;;;;;;;;;;;;;;;;5096210;28;20045;-74
2021/12/31 02:15:27;;;;;;;;;;;;;;;;;;5094012;28;19961;-74
2021/12/31 02:17:53;;;;;;;;;;;;;;;;;;5094762;28;19916;-75
2021/12/31 02:20:19;;;;;;;;;;;;;;;;;;5094674;28;19921;-74
2021/12/31 02:23:04;;;;;;;;;;;;;;;;;;5094632;28;19923;-74
2021/12/31 02:25:31;;;;;;;;;;;;;;;;;;5095019;28;19916;-74
2021/12/31 02:27:56;;;;;;;;;;;;;;;;;;5094111;28;19916;-74
2021/12/31 02:30:21;;;;;;;;;;;;;;;;;;5094276;28;19924;-74
2021/12/31 02:32:46;;;;;;;;;;;;;;;;;;5095188;28;20014;-74
2021/12/31 02:35:12;;;;;;;;;;;;;;;;;;5094467;28;19952;-74
2021/12/31 02:37:37;;;;;;;;;;;;;;;;;;5095831;28;19920;-74
2021/12/31 02:40:03;;;;;;;;;;;;;;;;;;5095777;28;20531;-74
2021/12/31 02:42:29;;;;;;;;;;;;;;;;;;5094734;28;19920;-74
2021/12/31 02:44:56;;;;;;;;;;;;;;;;;;5095094;28;19924;-74
2021/12/31 02:47:21;;;;;;;;;;;;;;;;;;5095704;28;19920;-75
2021/12/31 02:49:48;;;;;;;;;;;;;;;;;;5094371;28;19969;-74
2021/12/31 02:52:14;;;;;;;;;;;;;;;;;;5093900;28;19923;-74
2021/12/31 02:54:45;;;;;;;;;;;;;;;;;;5092900;28;19916;-74
2021/12/31 02:57:11;;;;;;;;;;;;;;;;;;5094478;28;19968;-74
2021/12/31 02:59:36;;;;;;;;;;;;;;;;;;5094316;28;20018;-75
2021/12/31 03:02:03;;;;;;;;;;;;;;;;;;5094448;28;19917;-74
2021/12/31 03:04:29;;;;;;;;;;;;;;;;;;5094226;28;19920;-74
2021/12/31 03:06:56;;;;;;;;;;;;;;;;;;5096299;28;19923;-74
2021/12/31 03:09:23;;;;;;;;;;;;;;;;;;5098449;28;20471;-74
2021/12/31 03:11:52;;;;;;;;;;;;;;;;;;5098473;28;19916;-74
2021/12/31 03:14:18;;;;;;;;;;;;;;;;;;5097125;28;19916;-74
2021/12/31 03:16:44;;;;;;;;;;;;;;;;;;5098634;28;19968;-74
2021/12/31 03:19:10;;;;;;;;;;;;;;;;;;5098607;28;19924;-74
2021/12/31 03:21:35;;;;;;;;;;;;;;;;;;5080205;28;19916;-74
2021/12/31 03:24:00;;;;;;;;;;;;;;;;;;5097295;28;19962;-74
2021/12/31 03:26:26;;;;;;;;;;;;;;;;;;5097651;28;20387;-74
2021/12/31 03:28:51;;;;;;;;;;;;;;;;;;5098793;28;19923;-74
2021/12/31 03:31:16;;;;;;;;;;;;;;;;;;5098778;28;19974;-75
2021/12/31 03:33:42;;;;;;;;;;;;;;;;;;5097951;28;19955;-74
2021/12/31 03:36:07;;;;;;;;;;;;;;;;;;5098436;28;19916;-74
2021/12/31 03:38:32;;;;;;;;;;;;;;;;;;5098777;28;19916;-74
2021/12/31 03:40:58;;;;;;;;;;;;;;;;;;5098723;28;19931;-74
2021/12/31 03:43:23;;;;;;;;;;;;;;;;;;5099066;28;20342;-74
2021/12/31 03:45:50;;;;;;;;;;;;;;;;;;5098156;28;19920;-74
2021/12/31 03:48:16;;;;;;;;;;;;;;;;;;5097416;28;19922;-75
2021/12/31 03:50:41;;;;;;;;;;;;;;;;;;5079271;28;20269;-74
2021/12/31 03:53:06;;;;;;;;;;;;;;;;;;5096926;28;19923;-74
2021/12/31 03:55:32;;;;;;;;;;;;;;;;;;5097212;28;20378;-74
2021/12/31 03:57:57;;;;;;;;;;;;;;;;;;5098323;28;19989;-74
2021/12/31 04:00:23;;;;;;;;;;;;;;;;;;5097632;28;19920;-74
2021/12/31 04:02:48;;;;;;;;;;;;;;;;;;5098714;28;19920;-74
2021/12/31 04:05:13;;;;;;;;;;;;;;;;;;5098153;28;20314;-74
2021/12/31 04:07:39;;;;;;;;;;;;;;;;;;5098689;28;20483;-74
2021/12/31 04:10:04;;;;;;;;;;;;;;;;;;5097373;28;19916;-74
2021/12/31 04:12:29;;;;;;;;;;;;;;;;;;5099089;28;19916;-74
2021/12/31 04:14:55;;;;;;;;;;;;;;;;;;5098216;28;19938;-74
2021/12/31 04:17:20;;;;;;;;;;;;;;;;;;5099218;28;19923;-74
2021/12/31 04:19:51;;;;;;;;;;;;;;;;;;5098921;28;19920;-74
2021/12/31 04:22:16;;;;;;;;;;;;;;;;;;5097562;28;20022;-74
2021/12/31 04:27:10;;;;;;;;;;;;;;;;;;5098648;28;19916;-74
2021/12/31 04:29:36;;;;;;;;;;;;;;;;;;5097241;28;19981;-75
2021/12/31 04:32:02;;;;;;;;;;;;;;;;;;5098535;28;19979;-75
2021/12/31 04:34:28;;;;;;;;;;;;;;;;;;5098232;28;19959;-75
2021/12/31 04:36:53;;;;;;;;;;;;;;;;;;5097384;28;19923;-75
2021/12/31 04:39:19;;;;;;;;;;;;;;;;;;5098375;28;19920;-75
2021/12/31 04:41:44;;;;;;;;;;;;;;;;;;5098533;28;19916;-75
2021/12/31 04:44:09;;;;;;;;;;;;;;;;;;5098581;28;19951;-75
2021/12/31 04:46:35;;;;;;;;;;;;;;;;;;5097661;28;19959;-75
2021/12/31 04:49:00;;;;;;;;;;;;;;;;;;5097352;28;19998;-75
2021/12/31 04:51:25;;;;;;;;;;;;;;;;;;5098364;28;19958;-74
2021/12/31 04:53:50;;;;;;;;;;;;;;;;;;5098131;28;19962;-75
2021/12/31 04:56:16;;;;;;;;;;;;;;;;;;5097001;28;19916;-75
2021/12/31 04:58:41;;;;;;;;;;;;;;;;;;5097983;28;19916;-75
2021/12/31 05:01:06;;;;;;;;;;;;;;;;;;5097413;28;19916;-75
2021/12/31 05:03:32;;;;;;;;;;;;;;;;;;5097853;28;20396;-75
2021/12/31 05:05:57;;;;;;;;;;;;;;;;;;5097929;28;19965;-75
2021/12/31 05:08:22;;;;;;;;;;;;;;;;;;5097758;28;19916;-75
2021/12/31 05:10:48;;;;;;;;;;;;;;;;;;5097680;28;20019;-75
2021/12/31 05:13:15;;;;;;;;;;;;;;;;;;5097627;28;19916;-75
2021/12/31 05:15:45;;;;;;;;;;;;;;;;;;5096134;28;20292;-75
2021/12/31 05:18:11;;;;;;;;;;;;;;;;;;5096234;28;20027;-75
2021/12/31 05:20:36;;;;;;;;;;;;;;;;;;5097039;28;20362;-75
2021/12/31 05:23:01;;;;;;;;;;;;;;;;;;5095577;28;20258;-74
2021/12/31 05:25:27;;;;;;;;;;;;;;;;;;5096057;28;19916;-75
2021/12/31 05:27:52;;;;;;;;;;;;;;;;;;5094648;28;19916;-75
2021/12/31 05:30:18;;;;;;;;;;;;;;;;;;5095700;28;19920;-75
2021/12/31 05:32:44;;;;;;;;;;;;;;;;;;5096244;28;19916;-75
2021/12/31 05:35:10;;;;;;;;;;;;;;;;;;5077221;28;19923;-74
2021/12/31 05:37:35;;;;;;;;;;;;;;;;;;5096346;28;19916;-74
2021/12/31 05:40:00;;;;;;;;;;;;;;;;;;5096290;28;19929;-75
2021/12/31 05:42:26;;;;;;;;;;;;;;;;;;5096629;28;19938;-75
2021/12/31 05:44:51;;;;;;;;;;;;;;;;;;5096744;28;20380;-75
2021/12/31 05:47:16;;;;;;;;;;;;;;;;;;5095458;28;19920;-75
2021/12/31 05:49:42;;;;;;;;;;;;;;;;;;5093002;28;19916;-74
2021/12/31 05:52:07;;;;;;;;;;;;;;;;;;5096401;28;20480;-74
2021/12/31 05:54:33;;;;;;;;;;;;;;;;;;5094866;28;19916;-75
2021/12/31 05:56:58;;;;;;;;;;;;;;;;;;5095325;28;19919;-75
2021/12/31 05:59:23;;;;;;;;;;;;;;;;;;5095605;28;19927;-75
2021/12/31 06:01:49;;;;;;;;;;;;;;;;;;5097039;28;20272;-75
2021/12/31 06:04:17;;;;;;;;;;;;;;;;;;5096181;28;19959;-75
2021/12/31 06:06:43;;;;;;;;;;;;;;;;;;5096566;28;19923;-75
2021/12/31 06:09:09;;;;;;;;;;;;;;;;;;5096286;28;19920;-75
2021/12/31 06:11:34;;;;;;;;;;;;;;;;;;5096804;28;19923;-74
2021/12/31 06:14:02;;;;;;;;;;;;;;;;;;5095650;28;20011;-75
2021/12/31 06:16:28;;;;;;;;;;;;;;;;;;5095159;28;19916;-74
2021/12/31 06:18:53;;;;;;;;;;;;;;;;;;5095339;28;20441;-75
2021/12/31 06:21:19;;;;;;;;;;;;;;;;;;5094721;28;20010;-74
2021/12/31 06:23:44;;;;;;;;;;;;;;;;;;5094802;28;19916;-75
2021/12/31 06:26:10;;;;;;;;;;;;;;;;;;5093671;28;19916;-74
2021/12/31 06:28:35;;;;;;;;;;;;;;;;;;5093545;28;19916;-75
2021/12/31 06:31:01;;;;;;;;;;;;;;;;;;5094947;28;20330;-74
2021/12/31 06:33:27;;;;;;;;;;;;;;;;;;5094759;28;19924;-75
2021/12/31 06:35:52;;;;;;;;;;;;;;;;;;5094145;28;19987;-75
2021/12/31 06:38:18;;;;;;;;;;;;;;;;;;5095162;28;19947;-75
2021/12/31 06:40:43;;;;;;;;;;;;;;;;;;5095931;28;20338;-75
2021/12/31 06:43:09;;;;;;;;;;;;;;;;;;5099647;28;20352;-75
2021/12/31 06:45:34;;;;;;;;;;;;;;;;;;5099218;28;20026;-75
2021/12/31 06:47:59;;;;;;;;;;;;;;;;;;5098673;28;19985;-75
2021/12/31 06:50:25;;;;;;;;;;;;;;;;;;5099545;28;19938;-74
2021/12/31 06:52:50;;;;;;;;;;;;;;;;;;5099541;28;19994;-75
2021/12/31 06:55:15;;;;;;;;;;;;;;;;;;5098923;28;20266;-74
2021/12/31 06:57:41;;;;;;;;;;;;;;;;;;5098217;28;19920;-75
2021/12/31 07:00:07;;;;;;;;;;;;;;;;;;5098910;28;20419;-75
2021/12/31 07:02:33;;;;;;;;;;;;;;;;;;5099097;28;19923;-75
2021/12/31 07:04:58;;;;;;;;;;;;;;;;;;5098578;28;20014;-75
2021/12/31 07:07:23;;;;;;;;;;;;;;;;;;5099195;28;19916;-75
2021/12/31 07:09:48;;;;;;;;;;;;;;;;;;5098958;28;19923;-75
2021/12/31 07:12:14;;;;;;;;;;;;;;;;;;5096613;28;20023;-75
2021/12/31 07:14:39;;;;;;;;;;;;;;;;;;5098439;28;19916;-75
2021/12/31 07:17:04;;;;;;;;;;;;;;;;;;5098105;28;19916;-75
2021/12/31 07:19:30;;;;;;;;;;;;;;;;;;5098921;28;19931;-75
2021/12/31 07:21:55;;;;;;;;;;;;;;;;;;5097819;28;20064;-75
2021/12/31 07:24:20;;;;;;;;;;;;;;;;;;5099534;28;19995;-75
2021/12/31 07:26:45;;;;;;;;;;;;;;;;;;5099397;28;20456;-75
2021/12/31 07:29:11;;;;;;;;;;;;;;;;;;5097839;28;19916;-74
2021/12/31 07:31:36;;;;;;;;;;;;;;;;;;5097941;28;19959;-75
2021/12/31 07:34:02;;;;;;;;;;;;;;;;;;5097296;28;19923;-76
2021/12/31 07:36:27;;;;;;;;;;;;;;;;;;5097170;28;20332;-76
2021/12/31 07:39:00;;;;;;;;;;;;;;;;;;5097703;28;20289;-75
2021/12/31 07:41:26;;;;;;;;;;;;;;;;;;5097994;28;19927;-75
2021/12/31 07:43:51;;;;;;;;;;;;;;;;;;5098438;28;19916;-75
2021/12/31 07:46:16;;;;;;;;;;;;;;;;;;5096622;28;19927;-74
2021/12/31 07:48:41;;;;;;;;;;;;;;;;;;5097606;28;20305;-72
2021/12/31 07:51:07;;;;;;;;;;;;;;;;;;5097952;28;19923;-75
2021/12/31 07:53:32;;;;;;;;;;;;;;;;;;5095870;28;19939;-76
2021/12/31 07:55:58;;;;;;;;;;;;;;;;;;5097662;28;19916;-75
2021/12/31 07:58:24;;;;;;;;;;;;;;;;;;5096322;28;19919;-73
2021/12/31 08:00:49;;;;;;;;;;;;;;;;;;5096515;28;19927;-73
2021/12/31 08:03:15;;;;;;;;;;;;;;;;;;5096642;28;19938;-73
2021/12/31 08:05:40;;;;;;;;;;;;;;;;;;5096518;28;19920;-73
2021/12/31 08:08:06;;;;;;;;;;;;;;;;;;5094859;28;20591;-73
2021/12/31 08:10:32;;;;;;;;;;;;;;;;;;5108552;28;19943;-73
2021/12/31 08:13:01;;;;;;;;;;;;;;;;;;5076334;28;20277;-74
2021/12/31 08:15:27;;;;;;;;;;;;;;;;;;5075741;28;19916;-73
2021/12/31 08:17:54;;;;;;;;;;;;;;;;;;5075937;28;20007;-73
2021/12/31 08:20:22;;;;;;;;;;;;;;;;;;5075762;28;20365;-73
2021/12/31 08:22:47;;;;;;;;;;;;;;;;;;5075665;28;19923;-74
2021/12/31 08:25:13;;;;;;;;;;;;;;;;;;5076361;28;19916;-73
2021/12/31 08:27:38;;;;;;;;;;;;;;;;;;5075896;28;19920;-74
2021/12/31 08:30:06;;;;;;;;;;;;;;;;;;5074346;28;19980;-73
2021/12/31 08:32:31;;;;;;;;;;;;;;;;;;5076213;28;19923;-74
2021/12/31 08:34:56;;;;;;;;;;;;;;;;;;5075814;28;19916;-74
2021/12/31 08:37:22;;;;;;;;;;;;;;;;;;5089896;28;19923;-74
2021/12/31 08:39:47;;;;;;;;;;;;;;;;;;5097919;28;19924;-75
2021/12/31 08:42:13;;;;;;;;;;;;;;;;;;5080083;28;20239;-76
2021/12/31 08:44:38;;;;;;;;;;;;;;;;;;5098708;28;19924;-76
2021/12/31 08:47:03;;;;;;;;;;;;;;;;;;5096686;28;19969;-77
2021/12/31 08:49:29;;;;;;;;;;;;;;;;;;5094972;28;19927;-76
2021/12/31 08:51:54;;;;;;;;;;;;;;;;;;5095762;28;19923;-76
2021/12/31 08:54:20;;;;;;;;;;;;;;;;;;5095832;28;19916;-76
2021/12/31 08:56:46;;;;;;;;;;;;;;;;;;5096041;28;19916;-76
2021/12/31 08:59:12;;;;;;;;;;;;;;;;;;5096301;28;19965;-75
2021/12/31 09:01:38;;;;;;;;;;;;;;;;;;5097432;28;20362;-76
2021/12/31 09:04:04;;;;;;;;;;;;;;;;;;5095743;28;19923;-75
2021/12/31 09:06:29;;;;;;;;;;;;;;;;;;5096159;28;19920;-76
2021/12/31 09:08:55;;;;;;;;;;;;;;;;;;5088083;28;20336;-75
2021/12/31 09:11:21;;;;;;;;;;;;;;;;;;5077078;28;19923;-77
2021/12/31 09:13:47;;;;;;;;;;;;;;;;;;5080402;28;19924;-76
2021/12/31 09:16:12;;;;;;;;;;;;;;;;;;5093185;28;20414;-76
2021/12/31 09:18:38;;;;;;;;;;;;;;;;;;5082257;28;19960;-75
2021/12/31 09:21:03;;;;;;;;;;;;;;;;;;5082693;28;19966;-75
2021/12/31 09:23:29;;;;;;;;;;;;;;;;;;5088484;28;19919;-76
2021/12/31 09:25:55;;;;;;;;;;;;;;;;;;5095704;28;19969;-75
2021/12/31 09:28:21;;;;;;;;;;;;;;;;;;5094223;28;20308;-74
2021/12/31 09:30:46;;;;;;;;;;;;;;;;;;5092659;28;19917;-75
2021/12/31 09:33:12;;;;;;;;;;;;;;;;;;5086591;28;19923;-76
2021/12/31 09:35:39;;;;;;;;;;;;;;;;;;5083333;28;19951;-75
2021/12/31 09:38:08;;;;;;;;;;;;;;;;;;5094615;28;19916;-74
2021/12/31 09:40:35;;;;;;;;;;;;;;;;;;5084127;28;20053;-76
2021/12/31 09:43:08;;;;;;;;;;;;;;;;;;5075657;28;19917;-75
2021/12/31 09:45:37;;;;;;;;;;;;;;;;;;5079452;28;19916;-76
2021/12/31 09:48:13;;;;;;;;;;;;;;;;;;5076406;28;19923;-76
2021/12/31 09:50:39;;;;;;;;;;;;;;;;;;5079923;28;19920;-76
2021/12/31 09:53:07;;;;;;;;;;;;;;;;;;5074566;28;21491;-75
2021/12/31 09:55:53;;;;;;;;;;;;;;;;;;5090316;28;20421;-75
2021/12/31 09:58:19;;;;;;;;;;;;;;;;;;5080930;28;19934;-74
2021/12/31 10:00:46;;;;;;;;;;;;;;;;;;5076786;28;19948;-74
2021/12/31 10:03:16;;;;;;;;;;;;;;;;;;5072354;28;19916;-73
2021/12/31 10:05:41;;;;;;;;;;;;;;;;;;5078455;28;20429;-73
2021/12/31 10:08:26;;;;;;;;;;;;;;;;;;5092757;28;19955;-75
2021/12/31 10:11:10;;;;;;;;;;;;;;;;;;5094811;28;19916;-75
2021/12/31 10:13:36;;;;;;;;;;;;;;;;;;5094620;28;19916;-75
2021/12/31 10:16:01;;;;;;;;;;;;;;;;;;5094771;28;19920;-76
2021/12/31 10:18:31;;;;;;;;;;;;;;;;;;5094316;28;20244;-74
2021/12/31 10:20:56;;;;;;;;;;;;;;;;;;5095142;28;20022;-74
2021/12/31 10:23:21;;;;;;;;;;;;;;;;;;5094109;28;19963;-73
2021/12/31 10:25:47;;;;;;;;;;;;;;;;;;5093965;28;19969;-74
2021/12/31 10:28:13;;;;;;;;;;;;;;;;;;5094065;28;20361;-73
2021/12/31 10:30:39;;;;;;;;;;;;;;;;;;5094030;28;20281;-73
2021/12/31 10:33:04;;;;;;;;;;;;;;;;;;5093488;28;19916;-72
2021/12/31 10:35:39;;;;;;;;;;;;;;;;;;5093948;28;20365;-73
2021/12/31 10:38:06;;;;;;;;;;;;;;;;;;5092715;28;19916;-73
2021/12/31 10:40:49;;;;;;;;;;;;;;;;;;5093699;28;19965;-73
2021/12/31 10:43:16;;;;;;;;;;;;;;;;;;5093878;28;19923;-74
2021/12/31 10:45:57;;;;;;;;;;;;;;;;;;5093481;28;19920;-72
2021/12/31 10:48:36;;;;;;;;;;;;;;;;;;5093043;28;19978;-72
2021/12/31 10:51:01;;;;;;;;;;;;;;;;;;5093868;28;19939;-72
2021/12/31 10:53:33;;;;;;;;;;;;;;;;;;5093655;28;19912;-74
2021/12/31 10:56:07;;;;;;;;;;;;;;;;;;5093466;28;19920;-74
2021/12/31 10:58:33;;;;;;;;;;;;;;;;;;5093545;28;20034;-75
2021/12/31 11:00:59;;;;;;;;;;;;;;;;;;5093372;28;20019;-75
2021/12/31 11:03:24;;;;;;;;;;;;;;;;;;5093650;28;19920;-75
2021/12/31 11:05:50;;;;;;;;;;;;;;;;;;5092716;28;19923;-75
2021/12/31 11:08:16;;;;;;;;;;;;;;;;;;5093526;28;19922;-74
2021/12/31 11:10:41;;;;;;;;;;;;;;;;;;5093465;28;19916;-75
2021/12/31 11:13:11;;;;;;;;;;;;;;;;;;5093614;28;20018;-75
2021/12/31 11:15:37;;;;;;;;;;;;;;;;;;5092738;28;19923;-71
2021/12/31 11:18:02;;;;;;;;;;;;;;;;;;5093353;28;19916;-72
2021/12/31 11:20:28;;;;;;;;;;;;;;;;;;5092276;28;19993;-71
2021/12/31 11:22:54;;;;;;;;;;;;;;;;;;5092986;28;19989;-71
2021/12/31 11:25:23;;;;;;;;;;;;;;;;;;5092193;28;19969;-71
2021/12/31 11:27:49;;;;;;;;;;;;;;;;;;5096071;28;20278;-71
2021/12/31 11:30:29;;;;;;;;;;;;;;;;;;5096229;28;19916;-71
2021/12/31 11:33:08;;;;;;;;;;;;;;;;;;5097356;28;19916;-71
2021/12/31 11:35:52;;;;;;;;;;;;;;;;;;5095885;28;19923;-71
2021/12/31 11:38:20;;;;;;;;;;;;;;;;;;5097009;28;20430;-75
2021/12/31 11:40:50;;;;;;;;;;;;;;;;;;5095794;28;19942;-73
2021/12/31 11:43:24;;;;;;;;;;;;;;;;;;5096266;28;19916;-72
2021/12/31 11:46:09;;;;;;;;;;;;;;;;;;5096527;28;19926;-72
2021/12/31 11:48:43;;;;;;;;;;;;;;;;;;5096613;28;19969;-72
2021/12/31 11:51:13;;;;;;;;;;;;;;;;;;5097109;28;20327;-72
2021/12/31 11:53:59;;;;;;;;;;;;;;;;;;5094598;28;19969;-72
2021/12/31 11:56:36;;;;;;;;;;;;;;;;;;5096628;28;19916;-73
2021/12/31 11:59:07;;;;;;;;;;;;;;;;;;5096545;28;19999;-72
2021/12/31 12:01:36;;;;;;;;;;;;;;;;;;5096451;28;19916;-72
2021/12/31 12:04:19;;;;;;;;;;;;;;;;;;5095768;28;19916;-73
2021/12/31 12:06:54;;;;;;;;;;;;;;;;;;5096571;28;20006;-72
2021/12/31 12:09:19;;;;;;;;;;;;;;;;;;5096158;28;20405;-72
2021/12/31 12:11:58;;;;;;;;;;;;;;;;;;5095039;28;19991;-72
2021/12/31 12:14:27;;;;;;;;;;;;;;;;;;5096448;28;19923;-72
2021/12/31 12:16:57;;;;;;;;;;;;;;;;;;5096377;28;19916;-72
2021/12/31 12:19:22;;;;;;;;;;;;;;;;;;5095976;28;19920;-72
2021/12/31 12:21:52;;;;;;;;;;;;;;;;;;5096338;28;19934;-72
2021/12/31 12:24:22;;;;;;;;;;;;;;;;;;5096115;28;19916;-72
2021/12/31 12:26:47;;;;;;;;;;;;;;;;;;5095956;28;19920;-72
2021/12/31 12:29:23;;;;;;;;;;;;;;;;;;5095855;28;19938;-72
2021/12/31 12:32:06;;;;;;;;;;;;;;;;;;5094810;28;19924;-72
2021/12/31 12:34:31;;;;;;;;;;;;;;;;;;5093563;28;19922;-72
2021/12/31 12:36:56;;;;;;;;;;;;;;;;;;5095726;28;19916;-72
2021/12/31 12:39:22;;;;;;;;;;;;;;;;;;5093402;28;19924;-72
2021/12/31 12:41:50;;;;;;;;;;;;;;;;;;5095432;28;20373;-72
2021/12/31 12:44:16;;;;;;;;;;;;;;;;;;5095641;28;19923;-72
2021/12/31 12:46:57;;;;;;;;;;;;;;;;;;5095349;28;19920;-72
2021/12/31 12:49:24;;;;;;;;;;;;;;;;;;5095381;28;19915;-73
2021/12/31 12:51:50;;;;;;;;;;;;;;;;;;5095504;28;19923;-74
2021/12/31 12:54:21;;;;;;;;;;;;;;;;;;5095606;28;19916;-74
2021/12/31 12:56:47;;;;;;;;;;;;;;;;;;5095376;28;19916;-75
2021/12/31 12:59:22;;;;;;;;;;;;;;;;;;5095178;28;19916;-74
2021/12/31 13:01:52;;;;;;;;;;;;;;;;;;5095383;28;19939;-74
2021/12/31 13:04:17;;;;;;;;;;;;;;;;;;5093589;28;19920;-74
2021/12/31 13:06:43;;;;;;;;;;;;;;;;;;5095053;28;19916;-74
2021/12/31 13:09:15;;;;;;;;;;;;;;;;;;5094077;28;19920;-75
2021/12/31 13:11:43;;;;;;;;;;;;;;;;;;5094880;28;19970;-75
2021/12/31 13:14:12;;;;;;;;;;;;;;;;;;5095151;28;19934;-74
2021/12/31 13:16:38;;;;;;;;;;;;;;;;;;5094963;28;19920;-74
2021/12/31 13:19:07;;;;;;;;;;;;;;;;;;5095195;28;20001;-75
2021/12/31 13:21:34;;;;;;;;;;;;;;;;;;5095188;28;19916;-73
2021/12/31 13:23:59;;;;;;;;;;;;;;;;;;5094489;28;19912;-74
2021/12/31 13:26:26;;;;;;;;;;;;;;;;;;5093588;28;19916;-76
2021/12/31 13:28:55;;;;;;;;;;;;;;;;;;5094826;28;19924;-76
2021/12/31 13:31:33;;;;;;;;;;;;;;;;;;5094876;28;20359;-76
2021/12/31 13:34:10;;;;;;;;;;;;;;;;;;5094639;28;20381;-76
2021/12/31 13:36:42;;;;;;;;;;;;;;;;;;5094334;28;19931;-75
2021/12/31 13:39:08;;;;;;;;;;;;;;;;;;5094685;28;20285;-76
2021/12/31 13:41:42;;;;;;;;;;;;;;;;;;5093086;28;19919;-75
2021/12/31 13:44:07;;;;;;;;;;;;;;;;;;5094283;28;19916;-76
2021/12/31 13:46:36;;;;;;;;;;;;;;;;;;5094208;28;19927;-75
2021/12/31 13:49:07;;;;;;;;;;;;;;;;;;5093936;28;19923;-74
2021/12/31 13:51:33;;;;;;;;;;;;;;;;;;5094568;28;20432;-74
2021/12/31 13:53:59;;;;;;;;;;;;;;;;;;5092570;28;19973;-74
2021/12/31 13:56:34;;;;;;;;;;;;;;;;;;5094299;28;20014;-73
2021/12/31 13:59:14;;;;;;;;;;;;;;;;;;5094342;28;19916;-74
2021/12/31 14:01:39;;;;;;;;;;;;;;;;;;5092713;28;19990;-74
2021/12/31 14:04:11;;;;;;;;;;;;;;;;;;5094135;28;19916;-74
2021/12/31 14:06:38;;;;;;;;;;;;;;;;;;5092013;28;20377;-74
2021/12/31 14:09:04;;;;;;;;;;;;;;;;;;5094225;28;20357;-74
2021/12/31 14:11:29;;;;;;;;;;;;;;;;;;5093069;28;19927;-74
2021/12/31 14:13:54;;;;;;;;;;;;;;;;;;5094032;28;19916;-74
2021/12/31 14:16:19;;;;;;;;;;;;;;;;;;5094337;28;20007;-74
2021/12/31 14:18:45;;;;;;;;;;;;;;;;;;5094124;28;19962;-74
2021/12/31 14:21:10;;;;;;;;;;;;;;;;;;5092682;28;19924;-74
2021/12/31 14:23:36;;;;;;;;;;;;;;;;;;5093985;28;19930;-74
2021/12/31 14:26:01;;;;;;;;;;;;;;;;;;5093662;28;19930;-74
2021/12/31 14:28:26;;;;;;;;;;;;;;;;;;5092697;28;20282;-74
2021/12/31 14:30:51;;;;;;;;;;;;;;;;;;5093795;28;19919;-74
2021/12/31 14:33:19;;;;;;;;;;;;;;;;;;5093093;28;19916;-74
2021/12/31 14:36:06;;;;;;;;;;;;;;;;;;5093820;28;19923;-74
2021/12/31 14:38:33;;;;;;;;;;;;;;;;;;5093773;28;19923;-74
2021/12/31 14:41:03;;;;;;;;;;;;;;;;;;5093793;28;19924;-74
2021/12/31 14:43:28;;;;;;;;;;;;;;;;;;5093841;28;19919;-74
2021/12/31 14:45:54;;;;;;;;;;;;;;;;;;5093396;28;20002;-74
2021/12/31 14:48:19;;;;;;;;;;;;;;;;;;5092532;28;19923;-74
2021/12/31 14:50:47;;;;;;;;;;;;;;;;;;5093547;28;20358;-74
2021/12/31 14:53:13;;;;;;;;;;;;;;;;;;5093637;28;19923;-74
2021/12/31 14:55:38;;;;;;;;;;;;;;;;;;5093420;28;20317;-74
2021/12/31 14:58:04;;;;;;;;;;;;;;;;;;5093713;28;19917;-74
2021/12/31 15:00:29;;;;;;;;;;;;;;;;;;5093630;28;19924;-74
2021/12/31 15:02:55;;;;;;;;;;;;;;;;;;5094987;28;19916;-74
2021/12/31 15:05:20;;;;;;;;;;;;;;;;;;5097727;28;19962;-74
2021/12/31 15:07:46;;;;;;;;;;;;;;;;;;5096561;28;20007;-74
2021/12/31 15:10:12;;;;;;;;;;;;;;;;;;5097663;28;19916;-74
2021/12/31 15:12:38;;;;;;;;;;;;;;;;;;5097503;28;19923;-73
2021/12/31 15:15:04;;;;;;;;;;;;;;;;;;5097559;28;19939;-74
2021/12/31 15:17:29;;;;;;;;;;;;;;;;;;5097052;28;19916;-74
2021/12/31 15:19:55;;;;;;;;;;;;;;;;;;5095929;28;20353;-75
2021/12/31 15:22:20;;;;;;;;;;;;;;;;;;5095896;28;19923;-75
2021/12/31 15:24:46;;;;;;;;;;;;;;;;;;5097204;28;19966;-75
2021/12/31 15:27:11;;;;;;;;;;;;;;;;;;5097037;28;20007;-75
2021/12/31 15:29:37;;;;;;;;;;;;;;;;;;5097150;28;19916;-75
2021/12/31 15:32:03;;;;;;;;;;;;;;;;;;5097161;28;19912;-75
2021/12/31 15:34:28;;;;;;;;;;;;;;;;;;5095824;28;20419;-75
2021/12/31 15:36:53;;;;;;;;;;;;;;;;;;5097175;28;19967;-75
2021/12/31 15:39:20;;;;;;;;;;;;;;;;;;5096522;28;19916;-75
2021/12/31 15:41:46;;;;;;;;;;;;;;;;;;5097026;28;19920;-75
2021/12/31 15:44:13;;;;;;;;;;;;;;;;;;5097023;28;19916;-75
2021/12/31 15:46:39;;;;;;;;;;;;;;;;;;5095221;28;19924;-75
2021/12/31 15:49:05;;;;;;;;;;;;;;;;;;5096958;28;19916;-75
2021/12/31 15:51:32;;;;;;;;;;;;;;;;;;5096882;28;19923;-75
2021/12/31 15:53:58;;;;;;;;;;;;;;;;;;5096622;28;19923;-75
2021/12/31 15:56:23;;;;;;;;;;;;;;;;;;5095555;28;19916;-75
2021/12/31 15:58:49;;;;;;;;;;;;;;;;;;5096325;28;19963;-75
2021/12/31 16:01:14;;;;;;;;;;;;;;;;;;5096450;28;19920;-75
2021/12/31 16:03:40;;;;;;;;;;;;;;;;;;5095832;28;19944;-75
2021/12/31 16:06:05;;;;;;;;;;;;;;;;;;5096086;28;20001;-75
2021/12/31 16:08:30;;;;;;;;;;;;;;;;;;5096157;28;19970;-75
2021/12/31 16:10:56;;;;;;;;;;;;;;;;;;5095305;28;20360;-75
2021/12/31 16:13:21;;;;;;;;;;;;;;;;;;5094911;28;19916;-75
2021/12/31 16:15:46;;;;;;;;;;;;;;;;;;5096046;28;19916;-75
2021/12/31 16:18:11;;;;;;;;;;;;;;;;;;5094317;28;19916;-75
2021/12/31 16:20:37;;;;;;;;;;;;;;;;;;5094316;28;19924;-75
2021/12/31 16:23:02;;;;;;;;;;;;;;;;;;5096126;28;19916;-74
2021/12/31 16:25:27;;;;;;;;;;;;;;;;;;5094971;28;20010;-73
2021/12/31 16:27:53;;;;;;;;;;;;;;;;;;5096030;28;20433;-73
2021/12/31 16:30:18;;;;;;;;;;;;;;;;;;5096170;28;20423;-73
2021/12/31 16:32:44;;;;;;;;;;;;;;;;;;5096241;28;19916;-73
2021/12/31 16:35:10;;;;;;;;;;;;;;;;;;5095223;28;19998;-73
2021/12/31 16:37:36;;;;;;;;;;;;;;;;;;5096039;28;19958;-73
2021/12/31 16:40:04;;;;;;;;;;;;;;;;;;5095749;28;19981;-73
2021/12/31 16:42:29;;;;;;;;;;;;;;;;;;5095926;28;19916;-72
2021/12/31 16:44:55;;;;;;;;;;;;;;;;;;5095728;28;20414;-73
2021/12/31 16:47:20;;;;;;;;;;;;;;;;;;5095494;28;19924;-73
2021/12/31 16:49:46;;;;;;;;;;;;;;;;;;5094855;28;19916;-73
2021/12/31 16:52:11;;;;;;;;;;;;;;;;;;5095770;28;20002;-74